Time;durP1;ratioP1;P1;durP2;ratioP2;P2;SDS_P1;SDS_P2;PMS_P1;PMS_P2;Temp;Humidity;BMP_temperature;BMP_pressure;BME280_temperature;BME280_humidity;BME280_pressure;Samples;Min_cycle;Max_cycle;Signal;HPM_P1;HPM_P2
2024/04/13 00:01:57;;;;;;;4.73;4.33;;;;;;;;;;5490508;26;20280;-92
2024/04/13 00:04:28;;;;;;;6.70;4.10;;;;;;;;;;5496773;26;20232;-91
2024/04/13 00:06:54;;;;;;;6.77;4.80;;;;;;;;;;5528036;26;20267;-91
2024/04/13 00:09:23;;;;;;;7.50;4.67;;;;;;;;;;5530778;26;20239;-92
2024/04/13 00:11:48;;;;;;;5.30;4.00;;;;;;;;;;5512038;26;20231;-92
2024/04/13 00:14:17;;;;;;;5.20;4.70;;;;;;;;;;5530931;26;20702;-92
2024/04/13 00:16:43;;;;;;;7.80;4.03;;;;;;;;;;5509902;26;20235;-92
2024/04/13 00:19:11;;;;;;;4.47;3.93;;;;;;;;;;5511415;26;20244;-91
2024/04/13 00:21:42;;;;;;;8.00;4.17;;;;;;;;;;5498861;26;20235;-91
2024/04/13 00:24:13;;;;;;;4.17;3.70;;;;;;;;;;5499941;26;20225;-91
2024/04/13 00:26:40;;;;;;;6.33;4.83;;;;;;;;;;5490702;26;20284;-92
2024/04/13 00:29:09;;;;;;;4.83;4.40;;;;;;;;;;5493584;26;20580;-92
2024/04/13 00:31:35;;;;;;;6.47;4.67;;;;;;;;;;5505497;26;20231;-91
2024/04/13 00:34:04;;;;;;;4.97;4.43;;;;;;;;;;5529967;26;20215;-91
2024/04/13 00:36:30;;;;;;;4.90;3.80;;;;;;;;;;5528209;26;20220;-91
2024/04/13 00:39:04;;;;;;;9.57;4.70;;;;;;;;;;5498693;26;20304;-92
2024/04/13 00:41:30;;;;;;;6.07;4.40;;;;;;;;;;5511836;26;20234;-92
2024/04/13 00:44:00;;;;;;;4.77;4.37;;;;;;;;;;5530993;26;20279;-92
2024/04/13 00:46:26;;;;;;;4.90;4.40;;;;;;;;;;5494716;26;20241;-91
2024/04/13 00:48:55;;;;;;;8.27;4.20;;;;;;;;;;5511553;26;20228;-91
2024/04/13 00:51:23;;;;;;;6.00;4.07;;;;;;;;;;5518969;26;20232;-92
2024/04/13 00:53:51;;;;;;;6.67;4.50;;;;;;;;;;5524339;26;20228;-91
2024/04/13 00:56:21;;;;;;;4.07;3.70;;;;;;;;;;5512344;26;20593;-91
2024/04/13 00:58:50;;;;;;;6.03;4.10;;;;;;;;;;5533206;26;20266;-92
2024/04/13 01:01:17;;;;;;;4.27;3.90;;;;;;;;;;5498070;26;20228;-88
2024/04/13 01:03:46;;;;;;;5.13;4.73;;;;;;;;;;5496397;26;20274;-91
2024/04/13 01:06:12;;;;;;;6.00;3.80;;;;;;;;;;5493809;26;20237;-91
2024/04/13 01:08:41;;;;;;;5.50;3.90;;;;;;;;;;5527849;26;20345;-91
2024/04/13 01:11:07;;;;;;;3.73;3.43;;;;;;;;;;5513526;26;20233;-92
2024/04/13 01:13:38;;;;;;;7.07;4.23;;;;;;;;;;5533337;26;20257;-91
2024/04/13 01:16:05;;;;;;;5.03;3.90;;;;;;;;;;5497171;26;20259;-91
2024/04/13 01:18:33;;;;;;;7.10;4.47;;;;;;;;;;5500584;26;20233;-90
2024/04/13 01:20:59;;;;;;;5.13;4.63;;;;;;;;;;5504330;26;20265;-91
2024/04/13 01:23:28;;;;;;;4.40;4.10;;;;;;;;;;5496459;26;20217;-90
2024/04/13 01:25:57;;;;;;;6.63;4.63;;;;;;;;;;5528198;26;20231;-90
2024/04/13 01:28:26;;;;;;;5.40;3.90;;;;;;;;;;5532395;26;20302;-90
2024/04/13 01:30:52;;;;;;;6.77;4.77;;;;;;;;;;5499532;26;20239;-91
2024/04/13 01:33:21;;;;;;;5.17;4.63;;;;;;;;;;5505830;26;20232;-90
2024/04/13 01:35:48;;;;;;;6.03;4.17;;;;;;;;;;5530470;26;20252;-90
2024/04/13 01:38:17;;;;;;;5.17;4.67;;;;;;;;;;5501487;26;20331;-90
2024/04/13 01:40:43;;;;;;;7.13;5.23;;;;;;;;;;5496157;26;20232;-90
2024/04/13 01:43:14;;;;;;;5.57;4.13;;;;;;;;;;5524210;26;20266;-90
2024/04/13 01:45:40;;;;;;;4.83;4.43;;;;;;;;;;5508465;26;20681;-91
2024/04/13 01:48:10;;;;;;;6.37;4.30;;;;;;;;;;5515033;26;20231;-90
2024/04/13 01:50:37;;;;;;;5.03;4.50;;;;;;;;;;5529388;26;20234;-90
2024/04/13 01:53:06;;;;;;;6.33;4.70;;;;;;;;;;5501120;26;20229;-90
2024/04/13 01:55:32;;;;;;;6.33;3.93;;;;;;;;;;5511506;26;20234;-90
2024/04/13 01:58:00;;;;;;;6.00;4.40;;;;;;;;;;5516515;26;20231;-90
2024/04/13 02:00:28;;;;;;;3.87;3.57;;;;;;;;;;5515292;26;20236;-90
2024/04/13 02:02:57;;;;;;;3.70;3.40;;;;;;;;;;5497229;26;20267;-90
2024/04/13 02:05:23;;;;;;;7.63;4.43;;;;;;;;;;5520469;26;20272;-89
2024/04/13 02:07:51;;;;;;;9.70;4.27;;;;;;;;;;5501011;26;20231;-90
2024/04/13 02:10:18;;;;;;;6.10;4.23;;;;;;;;;;5529241;26;20270;-91
2024/04/13 02:12:46;;;;;;;7.03;4.63;;;;;;;;;;5514266;26;20239;-90
2024/04/13 02:15:12;;;;;;;6.93;3.60;;;;;;;;;;5515988;26;20234;-90
2024/04/13 02:17:44;;;;;;;6.17;3.73;;;;;;;;;;5526191;26;20234;-91
2024/04/13 02:20:14;;;;;;;4.40;3.83;;;;;;;;;;5500704;26;20331;-91
2024/04/13 02:22:42;;;;;;;4.10;3.73;;;;;;;;;;5531716;26;20315;-90
2024/04/13 02:25:08;;;;;;;4.83;4.33;;;;;;;;;;5529373;26;20232;-90
2024/04/13 02:27:37;;;;;;;5.77;3.40;;;;;;;;;;5523030;26;20762;-90
2024/04/13 02:30:04;;;;;;;5.50;3.50;;;;;;;;;;5492984;26;20221;-90
2024/04/13 02:32:32;;;;;;;4.37;3.27;;;;;;;;;;5494730;26;20237;-91
2024/04/13 02:35:01;;;;;;;6.73;3.73;;;;;;;;;;5492233;26;20280;-91
2024/04/13 02:37:29;;;;;;;4.40;3.53;;;;;;;;;;5494445;26;20247;-90
2024/04/13 02:39:55;;;;;;;3.70;3.40;;;;;;;;;;5510640;26;20235;-90
2024/04/13 02:42:23;;;;;;;4.20;3.80;;;;;;;;;;5531835;26;20271;-89
2024/04/13 02:44:49;;;;;;;4.87;4.40;;;;;;;;;;5528267;26;20228;-92
2024/04/13 02:47:18;;;;;;;5.40;4.40;;;;;;;;;;5513221;26;20270;-92
2024/04/13 02:49:43;;;;;;;4.93;4.00;;;;;;;;;;5492271;26;20290;-91
2024/04/13 02:52:15;;;;;;;5.57;4.13;;;;;;;;;;5494546;26;20297;-92
2024/04/13 02:54:40;;;;;;;16.87;4.67;;;;;;;;;;5509710;26;20270;-92
2024/04/13 02:57:09;;;;;;;4.60;4.20;;;;;;;;;;5515380;26;20262;-92
2024/04/13 02:59:35;;;;;;;5.03;4.07;;;;;;;;;;5517270;26;20305;-92
2024/04/13 03:02:03;;;;;;;5.17;4.47;;;;;;;;;;5526066;26;20231;-91
2024/04/13 03:04:29;;;;;;;5.40;3.77;;;;;;;;;;5492489;26;20757;-92
2024/04/13 03:06:57;;;;;;;14.43;4.40;;;;;;;;;;5493690;26;20234;-93
2024/04/13 03:09:26;;;;;;;5.63;4.87;;;;;;;;;;5524248;26;20239;-92
2024/04/13 03:11:56;;;;;;;5.00;4.60;;;;;;;;;;5509803;26;20726;-92
2024/04/13 03:14:21;;;;;;;5.13;4.60;;;;;;;;;;5519363;26;20321;-91
2024/04/13 03:16:50;;;;;;;4.80;3.80;;;;;;;;;;5531260;26;20300;-90
2024/04/13 03:19:16;;;;;;;4.27;3.90;;;;;;;;;;5527495;26;20577;-89
2024/04/13 03:21:46;;;;;;;4.77;3.87;;;;;;;;;;5529395;26;20246;-83
2024/04/13 03:24:11;;;;;;;5.90;3.87;;;;;;;;;;5494317;26;20601;-83
2024/04/13 03:26:42;;;;;;;4.77;4.17;;;;;;;;;;5493623;26;20220;-84
2024/04/13 03:29:08;;;;;;;4.00;3.70;;;;;;;;;;5518605;26;20239;-84
2024/04/13 03:31:37;;;;;;;6.37;3.97;;;;;;;;;;5493677;26;20631;-84
2024/04/13 03:34:04;;;;;;;6.30;3.70;;;;;;;;;;5515953;26;20223;-83
2024/04/13 03:36:33;;;;;;;8.43;5.20;;;;;;;;;;5512966;26;20324;-83
2024/04/13 03:39:02;;;;;;;7.20;4.30;;;;;;;;;;5511758;26;20329;-83
2024/04/13 03:41:28;;;;;;;4.00;3.60;;;;;;;;;;5527441;26;20226;-83
2024/04/13 03:43:58;;;;;;;4.30;3.90;;;;;;;;;;5525387;26;20287;-83
2024/04/13 03:46:25;;;;;;;5.80;4.40;;;;;;;;;;5489941;26;20279;-84
2024/04/13 03:48:53;;;;;;;4.30;3.90;;;;;;;;;;5519600;26;20583;-83
2024/04/13 03:51:19;;;;;;;5.47;4.47;;;;;;;;;;5510297;26;20226;-83
2024/04/13 03:53:48;;;;;;;5.33;4.00;;;;;;;;;;5513730;26;20794;-86
2024/04/13 03:56:16;;;;;;;6.73;4.20;;;;;;;;;;5525941;26;20234;-86
2024/04/13 03:58:44;;;;;;;7.17;4.33;;;;;;;;;;5529379;26;20660;-86
2024/04/13 04:01:13;;;;;;;7.40;4.73;;;;;;;;;;5526140;26;20289;-84
2024/04/13 04:03:41;;;;;;;7.80;5.03;;;;;;;;;;5516338;26;20240;-82
2024/04/13 04:06:07;;;;;;;11.43;5.30;;;;;;;;;;5515624;26;20342;-82
2024/04/13 04:08:36;;;;;;;5.87;4.53;;;;;;;;;;5528521;26;20576;-83
2024/04/13 04:11:02;;;;;;;6.33;4.97;;;;;;;;;;5519546;26;20231;-83
2024/04/13 04:13:31;;;;;;;6.27;5.53;;;;;;;;;;5491710;26;20274;-84
2024/04/13 04:15:56;;;;;;;5.50;4.97;;;;;;;;;;5491858;26;20232;-82
2024/04/13 04:18:28;;;;;;;5.63;5.03;;;;;;;;;;5503180;26;20652;-83
2024/04/13 04:20:54;;;;;;;5.40;4.80;;;;;;;;;;5490734;26;20582;-82
2024/04/13 04:23:22;;;;;;;6.10;5.40;;;;;;;;;;5528637;26;20235;-81
2024/04/13 04:25:49;;;;;;;6.70;6.00;;;;;;;;;;5524231;26;20239;-82
2024/04/13 04:28:17;;;;;;;7.20;5.67;;;;;;;;;;5528532;26;20242;-80
2024/04/13 04:30:45;;;;;;;8.87;5.60;;;;;;;;;;5525358;26;20611;-84
2024/04/13 04:33:13;;;;;;;7.97;6.47;;;;;;;;;;5528388;26;20231;-82
2024/04/13 04:35:42;;;;;;;7.83;5.90;;;;;;;;;;5525868;26;20728;-83
2024/04/13 04:38:12;;;;;;;10.30;6.30;;;;;;;;;;5527187;26;20237;-82
2024/04/13 04:40:38;;;;;;;6.33;5.67;;;;;;;;;;5524378;26;20231;-80
2024/04/13 04:43:07;;;;;;;6.30;5.73;;;;;;;;;;5488439;26;20262;-83
2024/04/13 04:45:34;;;;;;;6.67;6.07;;;;;;;;;;5504576;26;20235;-84
2024/04/13 04:48:02;;;;;;;7.50;6.40;;;;;;;;;;5508449;26;20230;-83
2024/04/13 04:50:28;;;;;;;7.10;6.50;;;;;;;;;;5515008;26;20771;-85
2024/04/13 04:53:01;;;;;;;7.10;6.33;;;;;;;;;;5520507;26;20235;-85
2024/04/13 04:55:28;;;;;;;7.13;6.43;;;;;;;;;;5525289;26;20815;-85
2024/04/13 04:57:56;;;;;;;7.03;6.43;;;;;;;;;;5527543;26;20238;-85
2024/04/13 05:00:22;;;;;;;13.67;8.60;;;;;;;;;;5524828;26;20289;-85
2024/04/13 05:02:51;;;;;;;15.10;13.37;;;;;;;;;;5503166;26;20227;-84
2024/04/13 05:05:16;;;;;;;11.30;7.27;;;;;;;;;;5502633;26;20244;-90
2024/04/13 05:07:45;;;;;;;8.90;6.77;;;;;;;;;;5529433;26;20223;-92
2024/04/13 05:10:14;;;;;;;7.10;6.40;;;;;;;;;;5527374;26;20216;-94
2024/04/13 05:12:44;;;;;;;8.37;7.17;;;;;;;;;;5522107;26;20270;-92
2024/04/13 05:15:09;;;;;;;6.97;6.30;;;;;;;;;;5513098;26;20299;-89
2024/04/13 05:17:38;;;;;;;7.20;6.60;;;;;;;;;;5502889;26;20226;-93
2024/04/13 05:20:04;;;;;;;9.30;7.03;;;;;;;;;;5508871;26;20269;-93
2024/04/13 05:22:33;;;;;;;11.10;7.63;;;;;;;;;;5528688;26;20229;-93
2024/04/13 05:24:58;;;;;;;7.10;6.50;;;;;;;;;;5510968;26;20303;-93
2024/04/13 05:27:29;;;;;;;7.93;7.07;;;;;;;;;;5512297;26;20229;-93
2024/04/13 05:29:56;;;;;;;7.10;6.57;;;;;;;;;;5525438;26;20827;-92
2024/04/13 05:32:24;;;;;;;6.87;6.27;;;;;;;;;;5528585;26;20234;-92
2024/04/13 05:34:50;;;;;;;7.63;6.93;;;;;;;;;;5504233;26;20235;-93
2024/04/13 05:37:19;;;;;;;8.37;6.67;;;;;;;;;;5529544;26;20315;-93
2024/04/13 05:39:45;;;;;;;8.97;7.27;;;;;;;;;;5522053;26;20757;-93
2024/04/13 05:42:14;;;;;;;8.73;7.60;;;;;;;;;;5510222;25;20699;-92
2024/04/13 05:44:43;;;;;;;7.87;7.00;;;;;;;;;;5530316;26;20294;-93
2024/04/13 05:47:11;;;;;;;8.30;7.50;;;;;;;;;;5532238;26;20556;-93
2024/04/13 05:49:37;;;;;;;9.83;7.50;;;;;;;;;;5529794;26;20238;-94
2024/04/13 05:52:06;;;;;;;7.53;6.70;;;;;;;;;;5514692;26;20238;-94
2024/04/13 05:54:32;;;;;;;8.17;7.40;;;;;;;;;;5517451;26;20232;-93
2024/04/13 05:57:01;;;;;;;7.53;6.83;;;;;;;;;;5533191;26;20253;-93
2024/04/13 05:59:28;;;;;;;7.43;6.80;;;;;;;;;;5519184;26;20251;-93
2024/04/13 06:01:59;;;;;;;8.77;6.87;;;;;;;;;;5520726;26;20756;-91
2024/04/13 06:04:25;;;;;;;6.80;6.30;;;;;;;;;;5510267;26;20556;-84
2024/04/13 06:06:53;;;;;;;8.87;7.97;;;;;;;;;;5516146;26;20285;-84
2024/04/13 06:09:19;;;;;;;10.13;9.13;;;;;;;;;;5529087;26;20258;-83
2024/04/13 06:11:47;;;;;;;9.40;8.50;;;;;;;;;;5529031;26;20234;-84
2024/04/13 06:14:13;;;;;;;8.27;7.50;;;;;;;;;;5518156;26;20248;-84
2024/04/13 06:16:44;;;;;;;10.03;9.13;;;;;;;;;;5496294;26;20236;-84
2024/04/13 06:19:16;;;;;;;8.10;7.33;;;;;;;;;;5505877;26;20241;-83
2024/04/13 06:21:42;;;;;;;7.33;6.67;;;;;;;;;;5509527;26;20601;-81
2024/04/13 06:24:11;;;;;;;8.13;7.53;;;;;;;;;;5530291;26;20227;-81
2024/04/13 06:26:37;;;;;;;7.23;6.50;;;;;;;;;;5525891;26;20656;-80
2024/04/13 06:29:06;;;;;;;8.20;7.40;;;;;;;;;;5494962;26;20233;-82
2024/04/13 06:31:31;;;;;;;8.43;7.57;;;;;;;;;;5515327;26;20220;-81
2024/04/13 06:34:00;;;;;;;23.40;21.37;;;;;;;;;;5529031;26;20232;-81
2024/04/13 06:36:28;;;;;;;11.47;10.40;;;;;;;;;;5502491;26;20769;-81
2024/04/13 06:38:57;;;;;;;9.83;7.57;;;;;;;;;;5514435;26;20237;-81
2024/04/13 06:41:22;;;;;;;9.07;7.23;;;;;;;;;;5508493;26;20232;-83
2024/04/13 06:43:52;;;;;;;8.77;7.87;;;;;;;;;;5519590;26;20280;-82
2024/04/13 06:46:18;;;;;;;7.80;7.20;;;;;;;;;;5511933;26;20345;-82
2024/04/13 06:48:46;;;;;;;7.60;6.83;;;;;;;;;;5515597;26;20243;-81
2024/04/13 06:51:12;;;;;;;7.57;6.83;;;;;;;;;;5527109;26;20232;-81
2024/04/13 06:53:43;;;;;;;7.40;6.70;;;;;;;;;;5521689;25;20622;-81
2024/04/13 06:56:09;;;;;;;9.27;7.20;;;;;;;;;;5511874;26;20708;-80
2024/04/13 06:58:37;;;;;;;9.40;7.73;;;;;;;;;;5520494;26;20318;-80
2024/04/13 07:01:03;;;;;;;8.97;8.07;;;;;;;;;;5507550;26;20271;-80
2024/04/13 07:03:32;;;;;;;8.63;7.87;;;;;;;;;;5497894;26;20584;-80
2024/04/13 07:05:58;;;;;;;8.10;7.27;;;;;;;;;;5516359;26;20236;-81
2024/04/13 07:08:27;;;;;;;9.43;7.83;;;;;;;;;;5517555;26;20267;-80
2024/04/13 07:10:56;;;;;;;8.53;7.83;;;;;;;;;;5499172;26;20232;-80
2024/04/13 07:13:24;;;;;;;8.57;7.77;;;;;;;;;;5520156;26;20280;-80
2024/04/13 07:15:50;;;;;;;8.27;7.57;;;;;;;;;;5504476;26;20236;-79
2024/04/13 07:18:18;;;;;;;9.23;8.43;;;;;;;;;;5510689;26;20279;-81
2024/04/13 07:20:45;;;;;;;9.50;8.07;;;;;;;;;;5502657;26;20233;-84
2024/04/13 07:23:15;;;;;;;8.53;7.60;;;;;;;;;;5506897;26;20221;-82
2024/04/13 07:25:41;;;;;;;8.33;7.60;;;;;;;;;;5510416;26;20720;-81
2024/04/13 07:28:12;;;;;;;9.07;8.20;;;;;;;;;;5509112;26;20229;-81
2024/04/13 07:30:38;;;;;;;7.23;6.53;;;;;;;;;;5499386;26;20227;-81
2024/04/13 07:33:07;;;;;;;8.90;8.17;;;;;;;;;;5522491;26;20305;-82
2024/04/13 07:35:33;;;;;;;8.33;7.40;;;;;;;;;;5526193;26;20303;-84
2024/04/13 07:38:01;;;;;;;8.60;6.97;;;;;;;;;;5530549;26;20223;-82
2024/04/13 07:40:27;;;;;;;7.10;6.40;;;;;;;;;;5491565;26;20237;-81
2024/04/13 07:42:55;;;;;;;5.57;5.17;;;;;;;;;;5504856;26;20240;-85
2024/04/13 07:45:24;;;;;;;6.63;6.10;;;;;;;;;;5512858;26;20712;-83
2024/04/13 07:47:52;;;;;;;10.43;6.00;;;;;;;;;;5506147;26;20323;-83
2024/04/13 07:50:18;;;;;;;6.30;5.70;;;;;;;;;;5516945;26;20236;-83
2024/04/13 07:52:47;;;;;;;5.90;5.40;;;;;;;;;;5524932;26;20274;-83
2024/04/13 07:55:12;;;;;;;6.33;5.43;;;;;;;;;;5502152;26;20233;-84
2024/04/13 07:57:41;;;;;;;5.63;4.87;;;;;;;;;;5490507;26;20248;-84
2024/04/13 08:00:09;;;;;;;5.03;4.50;;;;;;;;;;5524604;26;20251;-83
2024/04/13 08:02:40;;;;;;;5.17;4.70;;;;;;;;;;5528615;26;20240;-82
2024/04/13 08:05:07;;;;;;;6.77;4.90;;;;;;;;;;5525551;26;20726;-88
2024/04/13 08:07:36;;;;;;;4.90;4.47;;;;;;;;;;5496896;26;20232;-89
2024/04/13 08:10:02;;;;;;;4.93;4.53;;;;;;;;;;5518177;26;20231;-83
2024/04/13 08:12:32;;;;;;;6.13;5.13;;;;;;;;;;5528037;26;20223;-82
2024/04/13 08:14:58;;;;;;;5.33;4.83;;;;;;;;;;5526215;26;20607;-84
2024/04/13 08:17:28;;;;;;;6.10;5.60;;;;;;;;;;5513390;26;20240;-83
2024/04/13 08:19:56;;;;;;;5.23;4.73;;;;;;;;;;5500456;26;20270;-82
2024/04/13 08:22:25;;;;;;;9.50;6.17;;;;;;;;;;5530003;26;20284;-82
2024/04/13 08:24:53;;;;;;;4.57;4.17;;;;;;;;;;5501777;26;20774;-83
2024/04/13 08:27:21;;;;;;;5.00;4.60;;;;;;;;;;5506537;26;20655;-81
2024/04/13 08:29:51;;;;;;;5.20;4.80;;;;;;;;;;5526094;26;20277;-81
2024/04/13 08:32:19;;;;;;;6.57;5.33;;;;;;;;;;5527956;26;20324;-82
2024/04/13 08:34:45;;;;;;;6.03;5.00;;;;;;;;;;5525593;26;20224;-82
2024/04/13 08:37:17;;;;;;;5.90;5.30;;;;;;;;;;5528560;26;20283;-82
2024/04/13 08:39:43;;;;;;;6.67;6.07;;;;;;;;;;5526223;26;20228;-81
2024/04/13 08:42:13;;;;;;;7.30;6.60;;;;;;;;;;5527592;26;20287;-81
2024/04/13 08:44:39;;;;;;;6.43;5.83;;;;;;;;;;5497904;26;20363;-81
2024/04/13 08:47:10;;;;;;;7.87;5.87;;;;;;;;;;5512127;26;20245;-84
2024/04/13 08:49:39;;;;;;;7.63;5.90;;;;;;;;;;5514028;26;20270;-84
2024/04/13 08:52:09;;;;;;;7.90;6.73;;;;;;;;;;5495689;26;20233;-84
2024/04/13 08:54:37;;;;;;;7.40;6.80;;;;;;;;;;5508391;26;20356;-84
2024/04/13 08:57:08;;;;;;;9.07;8.20;;;;;;;;;;5527979;26;20219;-84
2024/04/13 08:59:35;;;;;;;8.77;7.93;;;;;;;;;;5526408;26;20215;-84
2024/04/13 09:02:04;;;;;;;10.20;9.30;;;;;;;;;;5507220;26;20237;-84
2024/04/13 09:04:32;;;;;;;19.30;11.03;;;;;;;;;;5526307;26;20678;-84
2024/04/13 09:07:00;;;;;;;9.60;8.70;;;;;;;;;;5529069;26;20718;-84
2024/04/13 09:09:26;;;;;;;9.90;9.00;;;;;;;;;;5514950;26;20301;-84
2024/04/13 09:11:58;;;;;;;10.00;9.17;;;;;;;;;;5492158;26;20530;-83
2024/04/13 09:14:24;;;;;;;8.30;7.60;;;;;;;;;;5511074;26;20292;-84
2024/04/13 09:16:53;;;;;;;13.50;10.47;;;;;;;;;;5491962;26;20322;-84
2024/04/13 09:19:19;;;;;;;10.03;9.13;;;;;;;;;;5491811;26;20296;-83
2024/04/13 09:21:48;;;;;;;9.40;8.17;;;;;;;;;;5499014;26;20761;-83
2024/04/13 09:24:13;;;;;;;9.27;8.33;;;;;;;;;;5492459;26;20229;-84
2024/04/13 09:26:46;;;;;;;8.13;7.47;;;;;;;;;;5510118;26;20231;-84
2024/04/13 09:29:24;;;;;;;61.30;47.03;;;;;;;;;;5529294;26;20312;-83
2024/04/13 09:31:53;;;;;;;11.37;8.43;;;;;;;;;;5531141;26;20278;-83
2024/04/13 09:34:19;;;;;;;7.90;7.20;;;;;;;;;;5529873;26;20592;-84
2024/04/13 09:36:47;;;;;;;6.63;6.07;;;;;;;;;;5532202;26;20212;-83
2024/04/13 09:39:19;;;;;;;7.30;6.67;;;;;;;;;;5529626;26;20253;-83
2024/04/13 09:41:47;;;;;;;10.87;6.00;;;;;;;;;;5532356;26;20272;-85
2024/04/13 09:44:26;;;;;;;8.77;6.70;;;;;;;;;;5528206;26;20265;-83
2024/04/13 09:46:55;;;;;;;6.67;5.87;;;;;;;;;;5529867;26;20235;-83
2024/04/13 09:49:21;;;;;;;6.40;5.73;;;;;;;;;;5523949;26;20315;-83
2024/04/13 09:51:50;;;;;;;5.83;5.40;;;;;;;;;;5493857;26;20229;-83
2024/04/13 09:54:16;;;;;;;8.17;6.63;;;;;;;;;;5508042;26;20254;-83
2024/04/13 09:56:46;;;;;;;6.60;5.83;;;;;;;;;;5530050;26;20722;-83
2024/04/13 09:59:13;;;;;;;6.17;5.60;;;;;;;;;;5529053;26;20223;-80
2024/04/13 10:01:44;;;;;;;7.00;6.30;;;;;;;;;;5520821;26;20236;-80
2024/04/13 10:04:10;;;;;;;6.13;5.50;;;;;;;;;;5513884;26;20220;-79
2024/04/13 10:06:39;;;;;;;11.03;6.03;;;;;;;;;;5499850;26;20276;-79
2024/04/13 10:09:08;;;;;;;6.13;5.57;;;;;;;;;;5524917;26;20754;-78
2024/04/13 10:11:43;;;;;;;6.20;5.60;;;;;;;;;;5505345;26;20240;-79
2024/04/13 10:14:10;;;;;;;5.97;5.20;;;;;;;;;;5527824;26;20223;-78
2024/04/13 10:16:39;;;;;;;8.33;5.83;;;;;;;;;;5530941;26;20232;-79
2024/04/13 10:19:09;;;;;;;5.70;5.00;;;;;;;;;;5527537;26;20587;-79
2024/04/13 10:21:37;;;;;;;5.43;4.97;;;;;;;;;;5525082;26;20252;-79
2024/04/13 10:24:04;;;;;;;5.57;4.90;;;;;;;;;;5517555;26;20270;-79
2024/04/13 10:26:32;;;;;;;5.50;5.10;;;;;;;;;;5529306;26;20307;-80
2024/04/13 10:28:58;;;;;;;7.40;6.70;;;;;;;;;;5491369;26;20587;-79
2024/04/13 10:31:28;;;;;;;6.50;5.90;;;;;;;;;;5492816;26;20233;-79
2024/04/13 10:33:55;;;;;;;8.63;5.63;;;;;;;;;;5509268;26;20227;-79
2024/04/13 10:36:32;;;;;;;6.47;5.80;;;;;;;;;;5530034;26;20722;-80
2024/04/13 10:38:59;;;;;;;8.53;5.87;;;;;;;;;;5528400;26;20235;-80
2024/04/13 10:41:34;;;;;;;8.80;5.17;;;;;;;;;;5496407;26;20236;-79
2024/04/13 10:44:01;;;;;;;5.90;5.40;;;;;;;;;;5489952;26;20271;-80
2024/04/13 10:46:29;;;;;;;5.70;5.30;;;;;;;;;;5498055;26;20280;-79
2024/04/13 10:48:55;;;;;;;6.50;5.90;;;;;;;;;;5528688;26;20220;-80
2024/04/13 10:51:24;;;;;;;11.47;6.90;;;;;;;;;;5498494;26;20783;-80
2024/04/13 10:53:52;;;;;;;6.87;5.60;;;;;;;;;;5491688;26;20256;-79
2024/04/13 10:56:21;;;;;;;7.70;6.27;;;;;;;;;;5494053;26;20225;-79
2024/04/13 10:58:49;;;;;;;6.53;5.83;;;;;;;;;;5491556;26;20699;-79
2024/04/13 11:01:15;;;;;;;6.33;5.80;;;;;;;;;;5493926;26;20565;-80
2024/04/13 11:03:43;;;;;;;13.43;6.70;;;;;;;;;;5493938;26;20339;-79
2024/04/13 11:06:10;;;;;;;8.47;5.97;;;;;;;;;;5491600;26;20579;-80
2024/04/13 11:08:38;;;;;;;6.33;5.73;;;;;;;;;;5493865;26;20229;-79
2024/04/13 11:11:11;;;;;;;8.03;5.97;;;;;;;;;;5491580;26;20738;-79
2024/04/13 11:13:40;;;;;;;6.80;6.10;;;;;;;;;;5504452;26;20585;-79
2024/04/13 11:16:08;;;;;;;7.17;6.23;;;;;;;;;;5497723;26;20590;-80
2024/04/13 11:18:36;;;;;;;5.43;4.77;;;;;;;;;;5494036;26;20209;-79
2024/04/13 11:21:04;;;;;;;6.00;5.30;;;;;;;;;;5498154;26;20270;-80
2024/04/13 11:23:34;;;;;;;5.67;5.27;;;;;;;;;;5528765;26;20263;-79
2024/04/13 11:26:00;;;;;;;6.93;5.17;;;;;;;;;;5490933;26;20233;-79
2024/04/13 11:28:31;;;;;;;8.57;5.10;;;;;;;;;;5518751;26;20337;-79
2024/04/13 11:30:59;;;;;;;5.67;5.13;;;;;;;;;;5489535;26;20221;-79
2024/04/13 11:33:25;;;;;;;9.77;5.50;;;;;;;;;;5499187;26;20240;-80
2024/04/13 11:36:00;;;;;;;5.63;5.03;;;;;;;;;;5496863;26;20297;-79
2024/04/13 11:38:28;;;;;;;8.73;7.53;;;;;;;;;;5490961;26;20255;-79
2024/04/13 11:40:56;;;;;;;8.60;6.77;;;;;;;;;;5491463;26;20233;-80
2024/04/13 11:43:22;;;;;;;5.53;5.10;;;;;;;;;;5520249;26;20270;-79
2024/04/13 11:45:54;;;;;;;6.97;5.73;;;;;;;;;;5518018;26;20600;-80
2024/04/13 11:48:20;;;;;;;5.87;5.33;;;;;;;;;;5521806;26;20553;-83
2024/04/13 11:50:49;;;;;;;6.03;5.30;;;;;;;;;;5493299;26;20700;-79
2024/04/13 11:53:14;;;;;;;8.03;5.63;;;;;;;;;;5509695;26;20292;-80
2024/04/13 11:55:43;;;;;;;5.53;5.03;;;;;;;;;;5494191;26;20309;-80
2024/04/13 11:58:19;;;;;;;5.73;5.20;;;;;;;;;;5526641;26;20236;-80
2024/04/13 12:00:47;;;;;;;6.77;5.50;;;;;;;;;;5529989;26;20228;-79
2024/04/13 12:03:16;;;;;;;7.33;5.03;;;;;;;;;;5491849;26;20724;-78
2024/04/13 12:05:46;;;;;;;5.60;4.67;;;;;;;;;;5504492;26;20291;-79
2024/04/13 12:08:12;;;;;;;5.60;5.20;;;;;;;;;;5523586;26;20219;-80
2024/04/13 12:10:40;;;;;;;5.83;4.60;;;;;;;;;;5492977;26;20259;-81
2024/04/13 12:13:09;;;;;;;5.47;4.43;;;;;;;;;;5490614;26;20225;-81
2024/04/13 12:15:38;;;;;;;7.80;5.13;;;;;;;;;;5515103;26;20236;-81
2024/04/13 12:18:05;;;;;;;6.17;4.70;;;;;;;;;;5526265;26;20304;-81
2024/04/13 12:20:36;;;;;;;9.07;4.67;;;;;;;;;;5515461;26;20220;-81
2024/04/13 12:23:01;;;;;;;5.57;4.20;;;;;;;;;;5525805;26;20768;-82
2024/04/13 12:25:30;;;;;;;8.13;5.57;;;;;;;;;;5529624;26;20224;-80
2024/04/13 12:27:57;;;;;;;5.97;4.70;;;;;;;;;;5525173;26;20235;-81
2024/04/13 12:30:25;;;;;;;4.87;4.37;;;;;;;;;;5528163;26;20273;-81
2024/04/13 12:32:51;;;;;;;7.25;4.28;;;;;;;;;;5527135;26;20224;-81
2024/04/13 12:35:21;;;;;;;5.97;4.10;;;;;;;;;;5529306;26;20219;-81
2024/04/13 12:37:50;;;;;;;4.22;3.83;;;;;;;;;;5526903;26;20542;-81
2024/04/13 12:40:19;;;;;;;5.68;4.95;;;;;;;;;;5529793;26;20235;-81
2024/04/13 12:42:45;;;;;;;10.10;4.60;;;;;;;;;;5526678;26;20220;-81
2024/04/13 12:45:13;;;;;;;4.33;3.93;;;;;;;;;;5497876;26;20279;-81
2024/04/13 12:47:39;;;;;;;4.30;3.73;;;;;;;;;;5489894;26;20232;-81
2024/04/13 12:50:10;;;;;;;4.20;3.80;;;;;;;;;;5491475;26;20241;-82
2024/04/13 12:52:36;;;;;;;4.20;3.80;;;;;;;;;;5488470;26;20237;-81
2024/04/13 12:55:08;;;;;;;4.47;4.07;;;;;;;;;;5492235;26;20673;-82
2024/04/13 12:57:34;;;;;;;5.07;3.70;;;;;;;;;;5489594;26;20271;-80
2024/04/13 13:00:04;;;;;;;6.20;5.60;;;;;;;;;;5492394;26;20715;-80
2024/04/13 13:02:30;;;;;;;9.00;3.90;;;;;;;;;;5507510;26;20297;-78
2024/04/13 13:04:58;;;;;;;4.40;4.00;;;;;;;;;;5528933;26;20219;-77
2024/04/13 13:07:24;;;;;;;4.97;4.47;;;;;;;;;;5522341;26;20757;-78
2024/04/13 13:09:52;;;;;;;6.07;4.30;;;;;;;;;;5528808;26;20231;-81
2024/04/13 13:12:24;;;;;;;9.02;3.92;;;;;;;;;;5524283;26;20326;-81
2024/04/13 13:14:49;;;;;;;5.82;4.22;;;;;;;;;;5524118;26;20231;-80
2024/04/13 13:17:18;;;;;;;4.70;4.25;;;;;;;;;;5527846;26;20350;-81
2024/04/13 13:19:44;;;;;;;7.10;4.13;;;;;;;;;;5524575;26;20273;-81
2024/04/13 13:22:13;;;;;;;4.55;4.13;;;;;;;;;;5527703;26;20240;-80
2024/04/13 13:24:38;;;;;;;6.47;4.93;;;;;;;;;;5523968;26;20299;-80
2024/04/13 13:27:07;;;;;;;5.57;4.18;;;;;;;;;;5528739;26;20219;-80
2024/04/13 13:29:36;;;;;;;4.63;4.22;;;;;;;;;;5523493;26;20232;-79
2024/04/13 13:32:04;;;;;;;5.00;4.18;;;;;;;;;;5528629;26;20224;-79
2024/04/13 13:34:30;;;;;;;6.90;4.82;;;;;;;;;;5523944;26;20331;-79
2024/04/13 13:36:59;;;;;;;7.55;4.50;;;;;;;;;;5517702;26;20234;-80
2024/04/13 13:39:25;;;;;;;8.38;4.45;;;;;;;;;;5495469;26;20581;-79
2024/04/13 13:41:54;;;;;;;6.95;4.43;;;;;;;;;;5519771;26;20236;-80
2024/04/13 13:44:20;;;;;;;4.53;4.13;;;;;;;;;;5513336;26;20271;-80
2024/04/13 13:46:51;;;;;;;7.68;4.65;;;;;;;;;;5528206;26;20223;-78
2024/04/13 13:49:17;;;;;;;6.00;4.50;;;;;;;;;;5509238;26;20310;-80
2024/04/13 13:51:46;;;;;;;5.65;4.20;;;;;;;;;;5515173;26;20224;-80
2024/04/13 13:54:11;;;;;;;4.32;4.03;;;;;;;;;;5492067;26;20363;-79
2024/04/13 13:56:40;;;;;;;4.60;4.20;;;;;;;;;;5501088;26;20688;-79
2024/04/13 13:59:09;;;;;;;5.53;4.75;;;;;;;;;;5517243;26;20228;-80
2024/04/13 14:01:37;;;;;;;3.90;3.55;;;;;;;;;;5526322;26;20244;-79
2024/04/13 14:04:06;;;;;;;5.10;4.30;;;;;;;;;;5526123;26;20765;-79
2024/04/13 14:06:36;;;;;;;6.15;3.63;;;;;;;;;;5504559;26;20284;-79
2024/04/13 14:09:02;;;;;;;6.90;3.78;;;;;;;;;;5492367;26;20683;-80
2024/04/13 14:11:33;;;;;;;5.13;4.60;;;;;;;;;;5493016;26;20293;-80
2024/04/13 14:13:59;;;;;;;4.93;3.97;;;;;;;;;;5492516;26;20264;-81
2024/04/13 14:16:27;;;;;;;3.83;3.42;;;;;;;;;;5493046;26;20296;-80
2024/04/13 14:18:53;;;;;;;8.60;4.03;;;;;;;;;;5493726;26;20749;-80
2024/04/13 14:21:29;;;;;;;3.92;3.55;;;;;;;;;;5531397;26;20224;-80
2024/04/13 14:23:55;;;;;;;6.40;4.28;;;;;;;;;;5507390;26;20228;-80
2024/04/13 14:26:24;;;;;;;4.32;3.92;;;;;;;;;;5494489;26;20780;-80
2024/04/13 14:28:49;;;;;;;7.03;4.53;;;;;;;;;;5504701;26;20749;-79
2024/04/13 14:31:18;;;;;;;4.80;4.30;;;;;;;;;;5531623;26;20223;-79
2024/04/13 14:33:43;;;;;;;5.65;4.40;;;;;;;;;;5528803;26;20557;-80
2024/04/13 14:36:13;;;;;;;4.60;4.20;;;;;;;;;;5497237;26;20237;-80
2024/04/13 14:38:41;;;;;;;5.75;4.38;;;;;;;;;;5528522;26;20250;-79
2024/04/13 14:41:10;;;;;;;7.50;4.63;;;;;;;;;;5531212;26;20220;-79
2024/04/13 14:43:35;;;;;;;7.03;4.35;;;;;;;;;;5525696;26;20231;-80
2024/04/13 14:46:04;;;;;;;5.53;4.43;;;;;;;;;;5531299;26;20287;-80